NSZ3752 EKCH-LIBD
Flight info
| Callsign | NSZ3752 |
|---|---|
| Flight time | N/A |
| Altitude | 37000 |
| Route | SIMEG DCT BALOX M736 SALLO M44 KOGIM DCT MASOR DCT GERGA M725 KOBUS DCT PIKIB Z36 MAREM DCT BUDEX DCT TIVAP DCT EPOLA DCT NEMEK DCT NUPSO DCT XOLTA DCT VIE T415 EKMUR |
| Aircraft | B738/M-SDE2E3FGHIRWXY/LB1 |
Departure
| Time | N/A |
|---|---|
| Airport | Copenhagen Kastrup Airport (EKCH) |
Arrival
| Time | 2026-04-27 18:20 |
|---|---|
| Airport | Bari Karol Wojtyła International Airport (LIBD) |
| Time | Latitude | Longitude | Altitude | Speed | Heading |
|---|---|---|---|---|---|
| 2026-04-27 17:56 | 42.13732 | 15.96442 | 36910 ft | 440 kts | 165° |
| 2026-04-27 17:56 | 42.10719 | 15.97581 | 36144 ft | 442 kts | 165° |
| 2026-04-27 17:57 | 42.07735 | 15.98708 | 34982 ft | 450 kts | 166° |
| 2026-04-27 17:57 | 42.04683 | 15.99858 | 33745 ft | 461 kts | 166° |
| 2026-04-27 17:57 | 42.01567 | 16.01033 | 32391 ft | 469 kts | 166° |
| 2026-04-27 17:57 | 41.98403 | 16.02226 | 31102 ft | 475 kts | 166° |
| 2026-04-27 17:58 | 41.95203 | 16.03431 | 29827 ft | 480 kts | 166° |
| 2026-04-27 17:58 | 41.92028 | 16.04854 | 28394 ft | 483 kts | 158° |
| 2026-04-27 17:58 | 41.89025 | 16.06904 | 27041 ft | 485 kts | 148° |
| 2026-04-27 17:58 | 41.86279 | 16.09505 | 26075 ft | 479 kts | 144° |
| 2026-04-27 17:59 | 41.83623 | 16.12119 | 25239 ft | 469 kts | 144° |
| 2026-04-27 17:59 | 41.81010 | 16.14680 | 24385 ft | 462 kts | 144° |
| 2026-04-27 17:59 | 41.78427 | 16.17186 | 23466 ft | 456 kts | 144° |
| 2026-04-27 17:59 | 41.75866 | 16.19650 | 22427 ft | 450 kts | 144° |
| 2026-04-27 18:00 | 41.73334 | 16.22069 | 21500 ft | 444 kts | 144° |
| 2026-04-27 18:00 | 41.70837 | 16.24447 | 20598 ft | 437 kts | 144° |
| 2026-04-27 18:00 | 41.68376 | 16.26785 | 19714 ft | 431 kts | 144° |
| 2026-04-27 18:00 | 41.65945 | 16.29093 | 18848 ft | 426 kts | 144° |
| 2026-04-27 18:01 | 41.63546 | 16.31369 | 17951 ft | 421 kts | 144° |
| 2026-04-27 18:01 | 41.61180 | 16.33613 | 17098 ft | 413 kts | 144° |
| 2026-04-27 18:01 | 41.58857 | 16.35814 | 16299 ft | 405 kts | 144° |
| 2026-04-27 18:01 | 41.56580 | 16.37970 | 15478 ft | 398 kts | 144° |
| 2026-04-27 18:02 | 41.54365 | 16.40065 | 14694 ft | 392 kts | 144° |
| 2026-04-27 18:02 | 41.52158 | 16.42151 | 13929 ft | 385 kts | 144° |
| 2026-04-27 18:02 | 41.49993 | 16.44197 | 13071 ft | 380 kts | 144° |
| 2026-04-27 18:02 | 41.47847 | 16.46223 | 12265 ft | 374 kts | 144° |
| 2026-04-27 18:03 | 41.45764 | 16.48188 | 11881 ft | 358 kts | 144° |
| 2026-04-27 18:03 | 41.43790 | 16.50048 | 11730 ft | 337 kts | 144° |
| 2026-04-27 18:03 | 41.41925 | 16.51801 | 11462 ft | 323 kts | 145° |
| 2026-04-27 18:03 | 41.39981 | 16.53219 | 11029 ft | 315 kts | 158° |
| 2026-04-27 18:04 | 41.37964 | 16.54218 | 10753 ft | 304 kts | 161° |
| 2026-04-27 18:04 | 41.35993 | 16.55133 | 10399 ft | 297 kts | 161° |
| 2026-04-27 18:04 | 41.34076 | 16.56053 | 9942 ft | 295 kts | 160° |
| 2026-04-27 18:04 | 41.32144 | 16.57013 | 9430 ft | 293 kts | 160° |
| 2026-04-27 18:05 | 41.30243 | 16.57972 | 8960 ft | 290 kts | 159° |
| 2026-04-27 18:05 | 41.28368 | 16.58920 | 8575 ft | 288 kts | 159° |
| 2026-04-27 18:05 | 41.26488 | 16.59866 | 8305 ft | 286 kts | 159° |
| 2026-04-27 18:05 | 41.24657 | 16.60784 | 8169 ft | 278 kts | 160° |
| 2026-04-27 18:06 | 41.22789 | 16.61194 | 8014 ft | 269 kts | 188° |
| 2026-04-27 18:06 | 41.21071 | 16.60398 | 7860 ft | 261 kts | 214° |
| 2026-04-27 18:06 | 41.19767 | 16.58756 | 7600 ft | 258 kts | 236° |
| 2026-04-27 18:06 | 41.18976 | 16.56658 | 7359 ft | 253 kts | 250° |
| 2026-04-27 18:07 | 41.18370 | 16.54502 | 7100 ft | 252 kts | 251° |
| 2026-04-27 18:07 | 41.17765 | 16.52316 | 6849 ft | 251 kts | 251° |
| 2026-04-27 18:07 | 41.17158 | 16.50146 | 6589 ft | 251 kts | 251° |
| 2026-04-27 18:07 | 41.16547 | 16.47988 | 6386 ft | 247 kts | 250° |
| 2026-04-27 18:08 | 41.15947 | 16.45887 | 6292 ft | 240 kts | 250° |
| 2026-04-27 18:08 | 41.15362 | 16.43844 | 6176 ft | 233 kts | 250° |
| 2026-04-27 18:08 | 41.14795 | 16.41866 | 6070 ft | 225 kts | 251° |
| 2026-04-27 18:08 | 41.14249 | 16.39947 | 5996 ft | 222 kts | 251° |
| 2026-04-27 18:09 | 41.13703 | 16.38034 | 5930 ft | 222 kts | 251° |
| 2026-04-27 18:09 | 41.13153 | 16.36106 | 5874 ft | 225 kts | 251° |
| 2026-04-27 18:09 | 41.12592 | 16.34144 | 5808 ft | 229 kts | 251° |
| 2026-04-27 18:09 | 41.12026 | 16.32167 | 5712 ft | 230 kts | 250° |
| 2026-04-27 18:10 | 41.11457 | 16.30182 | 5638 ft | 230 kts | 251° |
| 2026-04-27 18:10 | 41.10888 | 16.28197 | 5559 ft | 231 kts | 251° |
| 2026-04-27 18:10 | 41.10314 | 16.26199 | 5480 ft | 232 kts | 250° |
| 2026-04-27 18:10 | 41.09692 | 16.24237 | 5287 ft | 232 kts | 239° |
| 2026-04-27 18:11 | 41.08491 | 16.22842 | 5012 ft | 233 kts | 203° |
| 2026-04-27 18:11 | 41.06902 | 16.22574 | 4775 ft | 233 kts | 172° |
| 2026-04-27 18:11 | 41.05361 | 16.23173 | 4558 ft | 231 kts | 160° |
| 2026-04-27 18:11 | 41.03861 | 16.23945 | 4309 ft | 231 kts | 159° |
| 2026-04-27 18:12 | 41.02367 | 16.24720 | 4078 ft | 230 kts | 158° |
| 2026-04-27 18:12 | 41.01071 | 16.25862 | 4020 ft | 222 kts | 126° |
| 2026-04-27 18:12 | 41.00550 | 16.27691 | 4017 ft | 218 kts | 85° |
| 2026-04-27 18:12 | 41.00931 | 16.29652 | 4051 ft | 226 kts | 69° |
| 2026-04-27 18:13 | 41.01454 | 16.31634 | 4048 ft | 228 kts | 70° |
| 2026-04-27 18:13 | 41.01979 | 16.33603 | 4051 ft | 223 kts | 70° |
| 2026-04-27 18:13 | 41.02499 | 16.35504 | 4049 ft | 217 kts | 69° |
| 2026-04-27 18:13 | 41.03014 | 16.37366 | 4057 ft | 216 kts | 69° |
| 2026-04-27 18:14 | 41.03534 | 16.39233 | 4049 ft | 216 kts | 69° |
| 2026-04-27 18:14 | 41.04054 | 16.41097 | 4040 ft | 215 kts | 69° |
| 2026-04-27 18:14 | 41.04571 | 16.42955 | 4024 ft | 214 kts | 69° |
| 2026-04-27 18:14 | 41.05086 | 16.44803 | 4037 ft | 213 kts | 69° |
| 2026-04-27 18:15 | 41.05599 | 16.46641 | 4037 ft | 213 kts | 69° |
| 2026-04-27 18:15 | 41.06114 | 16.48484 | 4045 ft | 214 kts | 69° |
| 2026-04-27 18:15 | 41.06633 | 16.50345 | 3907 ft | 216 kts | 69° |
| 2026-04-27 18:15 | 41.07149 | 16.52192 | 3629 ft | 211 kts | 69° |
| 2026-04-27 18:16 | 41.07648 | 16.53977 | 3369 ft | 201 kts | 68° |
| 2026-04-27 18:16 | 41.08123 | 16.55675 | 3106 ft | 192 kts | 69° |
| 2026-04-27 18:16 | 41.08575 | 16.57288 | 2813 ft | 183 kts | 69° |
| 2026-04-27 18:16 | 41.09008 | 16.58834 | 2577 ft | 175 kts | 69° |
| 2026-04-27 18:17 | 41.09426 | 16.60323 | 2353 ft | 170 kts | 70° |
| 2026-04-27 18:17 | 41.09834 | 16.61777 | 2136 ft | 168 kts | 70° |
| 2026-04-27 18:17 | 41.10240 | 16.63227 | 1922 ft | 168 kts | 70° |
| 2026-04-27 18:17 | 41.10640 | 16.64649 | 1734 ft | 164 kts | 70° |
| 2026-04-27 18:18 | 41.11041 | 16.66079 | 1490 ft | 165 kts | 71° |
| 2026-04-27 18:18 | 41.11451 | 16.67507 | 1273 ft | 167 kts | 69° |
| 2026-04-27 18:18 | 41.11845 | 16.68912 | 1044 ft | 157 kts | 71° |
| 2026-04-27 18:18 | 41.12213 | 16.70253 | 803 ft | 154 kts | 70° |
| 2026-04-27 18:19 | 41.12595 | 16.71586 | 600 ft | 155 kts | 70° |
| 2026-04-27 18:19 | 41.12971 | 16.72939 | 384 ft | 156 kts | 70° |
| 2026-04-27 18:19 | 41.13353 | 16.74277 | 166 ft | 155 kts | 70° |
| 2026-04-27 18:19 | 41.13707 | 16.75526 | 139 ft | 130 kts | 69° |
| 2026-04-27 18:20 | 41.13966 | 16.76465 | 123 ft | 87 kts | 70° |
| 2026-04-27 18:20 | 41.14124 | 16.77024 | 122 ft | 43 kts | 69° |
| 2026-04-27 18:20 | 41.14185 | 16.77241 | 117 ft | 15 kts | 69° |
| 2026-04-27 18:20 | 41.14209 | 16.77387 | 116 ft | 17 kts | 109° |
| 2026-04-27 18:21 | 41.14111 | 16.77407 | 118 ft | 16 kts | 202° |
| 2026-04-27 18:21 | 41.14024 | 16.77326 | 120 ft | 16 kts | 248° |
| 2026-04-27 18:21 | 41.13986 | 16.77194 | 121 ft | 15 kts | 249° |
| 2026-04-27 18:21 | 41.13950 | 16.77065 | 121 ft | 15 kts | 250° |
| 2026-04-27 18:22 | 41.13914 | 16.76940 | 122 ft | 14 kts | 249° |
| 2026-04-27 18:22 | 41.13879 | 16.76816 | 121 ft | 14 kts | 250° |
| 2026-04-27 18:22 | 41.13843 | 16.76758 | 128 ft | 4 kts | 184° |
| 2026-04-27 18:22 | 41.13807 | 16.76774 | 130 ft | 9 kts | 165° |
| 2026-04-27 18:23 | 41.13753 | 16.76696 | 135 ft | 17 kts | 249° |
| 2026-04-27 18:23 | 41.13701 | 16.76553 | 135 ft | 15 kts | 216° |
| 2026-04-27 18:23 | 41.13634 | 16.76452 | 135 ft | 15 kts | 249° |
| 2026-04-27 18:23 | 41.13598 | 16.76326 | 135 ft | 14 kts | 249° |
| 2026-04-27 18:24 | 41.13557 | 16.76272 | 136 ft | 7 kts | 168° |
| 2026-04-27 18:24 | 41.13515 | 16.76292 | 135 ft | 0 kts | 159° |